Time;durP1;ratioP1;P1;durP2;ratioP2;P2;SDS_P1;SDS_P2;PMS_P1;PMS_P2;Temp;Humidity;BMP_temperature;BMP_pressure;BME280_temperature;BME280_humidity;BME280_pressure;Samples;Min_cycle;Max_cycle;Signal;HPM_P1;HPM_P2
2023/05/23 00:02:34;;;;;;;8.13;5.40;;;;;;;;;;6281915;22;20019;-82
2023/05/23 00:05:20;;;;;;;11.52;5.25;;;;;;;;;;6283410;22;20431;-82
2023/05/23 00:08:06;;;;;;;8.82;5.70;;;;;;;;;;6283988;22;20012;-82
2023/05/23 00:10:51;;;;;;;8.57;5.60;;;;;;;;;;6259739;22;20015;-82
2023/05/23 00:13:38;;;;;;;10.48;6.15;;;;;;;;;;6282201;22;20019;-82
2023/05/23 00:16:24;;;;;;;11.10;6.45;;;;;;;;;;6283507;22;20016;-82
2023/05/23 00:19:16;;;;;;;8.27;5.95;;;;;;;;;;6282246;22;20015;-82
2023/05/23 00:22:02;;;;;;;10.82;6.07;;;;;;;;;;6281918;22;20023;-82
2023/05/23 00:24:48;;;;;;;9.38;6.57;;;;;;;;;;6282661;22;20012;-82
2023/05/23 00:27:33;;;;;;;9.20;5.97;;;;;;;;;;6283598;22;20020;-82
2023/05/23 00:30:18;;;;;;;8.45;5.78;;;;;;;;;;6283244;22;20015;-82
2023/05/23 00:33:05;;;;;;;9.05;6.32;;;;;;;;;;6283344;22;20015;-82
2023/05/23 00:35:50;;;;;;;7.10;5.05;;;;;;;;;;6281470;22;20015;-82
2023/05/23 00:38:35;;;;;;;9.52;5.45;;;;;;;;;;6260351;22;20016;-82
2023/05/23 00:41:21;;;;;;;9.02;6.05;;;;;;;;;;6260513;22;20618;-82
2023/05/23 00:44:08;;;;;;;8.15;5.80;;;;;;;;;;6281649;22;20016;-82
2023/05/23 00:46:56;;;;;;;13.40;5.60;;;;;;;;;;6260459;22;20011;-82
2023/05/23 00:49:42;;;;;;;7.35;5.28;;;;;;;;;;6283290;22;20015;-82
2023/05/23 00:52:28;;;;;;;8.43;5.47;;;;;;;;;;6283023;22;20015;-83
2023/05/23 00:55:14;;;;;;;9.48;5.10;;;;;;;;;;6281768;22;20016;-83
2023/05/23 00:58:00;;;;;;;6.40;4.68;;;;;;;;;;6266131;22;20012;-83
2023/05/23 01:00:49;;;;;;;10.63;5.00;;;;;;;;;;6290699;22;20012;-82
2023/05/23 01:03:35;;;;;;;8.55;4.50;;;;;;;;;;6287729;22;20012;-82
2023/05/23 01:06:20;;;;;;;6.38;4.50;;;;;;;;;;6290146;22;20433;-82
2023/05/23 01:09:06;;;;;;;5.45;4.57;;;;;;;;;;6291108;22;20011;-80
2023/05/23 01:12:04;;;;;;;7.47;4.90;;;;;;;;;;6288699;22;20015;-82
2023/05/23 01:15:07;;;;;;;8.15;5.13;;;;;;;;;;6268762;22;20012;-82
2023/05/23 01:17:59;;;;;;;5.72;4.43;;;;;;;;;;6285960;22;20019;-83
2023/05/23 01:20:54;;;;;;;6.97;4.68;;;;;;;;;;6284873;22;20016;-83
2023/05/23 01:23:40;;;;;;;8.75;4.85;;;;;;;;;;6283462;22;20346;-83
2023/05/23 01:26:34;;;;;;;6.72;4.95;;;;;;;;;;6277692;22;20020;-83
2023/05/23 01:29:24;;;;;;;;;;;;;;;;;;6285519;22;20007;-83
2023/05/23 01:32:11;;;;;;;7.45;4.65;;;;;;;;;;6285140;22;19911;-83
2023/05/23 01:34:56;;;;;;;9.73;5.38;;;;;;;;;;6283315;22;20015;-83
2023/05/23 01:37:43;;;;;;;7.05;5.05;;;;;;;;;;6262186;22;20020;-83
2023/05/23 01:40:28;;;;;;;8.10;4.90;;;;;;;;;;6284610;22;20016;-83
2023/05/23 01:43:14;;;;;;;6.57;5.35;;;;;;;;;;6284931;22;20020;-83
2023/05/23 01:46:00;;;;;;;6.05;5.00;;;;;;;;;;6283553;22;20328;-83
2023/05/23 01:48:46;;;;;;;6.25;4.60;;;;;;;;;;6284360;22;20043;-83
2023/05/23 01:51:32;;;;;;;6.03;4.45;;;;;;;;;;6284694;22;20425;-83
2023/05/23 01:54:18;;;;;;;6.57;4.90;;;;;;;;;;6261672;22;20016;-83
2023/05/23 01:57:05;;;;;;;24.48;16.00;;;;;;;;;;6283478;22;20012;-83
2023/05/23 01:59:50;;;;;;;25.58;16.20;;;;;;;;;;6283023;22;20012;-83
2023/05/23 02:02:35;;;;;;;15.73;9.50;;;;;;;;;;6283294;22;20023;-83
2023/05/23 02:05:20;;;;;;;9.05;5.60;;;;;;;;;;6283746;22;20016;-83
2023/05/23 02:08:06;;;;;;;8.43;5.40;;;;;;;;;;6284292;22;20008;-83
2023/05/23 02:10:51;;;;;;;6.65;4.95;;;;;;;;;;6282984;22;20324;-83
2023/05/23 02:13:38;;;;;;;7.00;4.95;;;;;;;;;;6282807;22;20019;-83
2023/05/23 02:16:25;;;;;;;9.93;5.32;;;;;;;;;;6284275;22;20432;-83
2023/05/23 02:19:10;;;;;;;6.50;4.55;;;;;;;;;;6283725;22;20012;-83
2023/05/23 02:21:55;;;;;;;9.88;5.43;;;;;;;;;;6282381;22;20012;-83
2023/05/23 02:24:41;;;;;;;7.28;4.95;;;;;;;;;;6283122;22;20421;-83
2023/05/23 02:27:27;;;;;;;7.57;4.80;;;;;;;;;;6283388;22;20324;-83
2023/05/23 02:30:13;;;;;;;7.45;5.13;;;;;;;;;;6284101;22;20020;-83
2023/05/23 02:32:58;;;;;;;7.65;5.03;;;;;;;;;;6282979;22;20012;-83
2023/05/23 02:35:44;;;;;;;9.23;5.22;;;;;;;;;;6282655;22;20020;-84
2023/05/23 02:38:29;;;;;;;8.75;5.53;;;;;;;;;;6284167;22;20035;-83
2023/05/23 02:41:16;;;;;;;10.43;5.78;;;;;;;;;;6261816;22;20016;-83
2023/05/23 02:44:02;;;;;;;7.75;5.43;;;;;;;;;;6282504;22;20015;-83
2023/05/23 02:46:47;;;;;;;8.55;5.32;;;;;;;;;;6283014;22;20012;-81
2023/05/23 02:49:33;;;;;;;13.00;5.65;;;;;;;;;;6282629;22;20012;-83
2023/05/23 02:52:18;;;;;;;7.15;5.25;;;;;;;;;;6282498;22;20016;-83
2023/05/23 02:55:04;;;;;;;8.80;5.63;;;;;;;;;;6261696;22;20016;-83
2023/05/23 02:57:57;;;;;;;11.32;6.43;;;;;;;;;;6262393;22;20016;-83
2023/05/23 03:00:43;;;;;;;13.38;9.30;;;;;;;;;;6282929;22;20432;-83
2023/05/23 03:03:30;;;;;;;14.65;9.20;;;;;;;;;;6282749;22;20024;-83
2023/05/23 03:06:15;;;;;;;16.95;9.32;;;;;;;;;;6260679;22;20016;-81
2023/05/23 03:09:01;;;;;;;16.02;9.20;;;;;;;;;;6282902;22;20020;-81
2023/05/23 03:11:46;;;;;;;14.75;7.75;;;;;;;;;;6260562;22;20015;-81
2023/05/23 03:14:31;;;;;;;10.88;6.70;;;;;;;;;;6283880;22;20015;-82
2023/05/23 03:17:16;;;;;;;11.95;7.00;;;;;;;;;;6261206;22;20016;-81
2023/05/23 03:20:03;;;;;;;10.35;6.90;;;;;;;;;;6282186;22;20023;-81
2023/05/23 03:22:48;;;;;;;12.00;7.55;;;;;;;;;;6261069;22;20023;-81
2023/05/23 03:25:34;;;;;;;16.88;7.65;;;;;;;;;;6281917;22;20008;-82
2023/05/23 03:28:20;;;;;;;11.82;7.72;;;;;;;;;;6281978;22;20015;-83
2023/05/23 03:31:05;;;;;;;7.45;5.25;;;;;;;;;;6282307;22;20012;-84
2023/05/23 03:33:52;;;;;;;9.50;5.20;;;;;;;;;;6283076;22;20020;-83
2023/05/23 03:36:38;;;;;;;10.05;5.07;;;;;;;;;;6282572;22;20015;-82
2023/05/23 03:39:24;;;;;;;9.77;5.05;;;;;;;;;;6281694;22;20016;-83
2023/05/23 03:42:10;;;;;;;7.07;4.85;;;;;;;;;;6282135;22;20012;-83
2023/05/23 03:44:55;;;;;;;8.80;4.68;;;;;;;;;;6282911;22;20023;-82
2023/05/23 03:47:41;;;;;;;6.18;4.50;;;;;;;;;;6281966;22;20016;-83
2023/05/23 03:50:27;;;;;;;7.78;5.07;;;;;;;;;;6282353;22;20011;-83
2023/05/23 03:53:12;;;;;;;6.72;4.78;;;;;;;;;;6283351;22;20016;-83
2023/05/23 03:55:57;;;;;;;10.80;5.90;;;;;;;;;;6260652;22;20020;-83
2023/05/23 03:58:43;;;;;;;12.68;4.80;;;;;;;;;;6282145;22;20433;-83
2023/05/23 04:01:32;;;;;;;7.90;4.88;;;;;;;;;;6282011;22;20020;-83
2023/05/23 04:04:19;;;;;;;7.82;5.20;;;;;;;;;;6281758;22;20024;-83
2023/05/23 04:07:05;;;;;;;8.00;5.20;;;;;;;;;;6260903;22;20016;-83
2023/05/23 04:09:51;;;;;;;7.05;4.65;;;;;;;;;;6283493;22;20011;-83
2023/05/23 04:12:37;;;;;;;8.02;4.63;;;;;;;;;;6283682;22;20016;-83
2023/05/23 04:15:26;;;;;;;9.25;5.30;;;;;;;;;;6283207;22;20015;-83
2023/05/23 04:18:22;;;;;;;8.68;4.80;;;;;;;;;;6284809;22;20421;-83
2023/05/23 04:21:07;;;;;;;9.85;4.70;;;;;;;;;;6283453;22;20008;-83
2023/05/23 04:23:56;;;;;;;8.75;5.35;;;;;;;;;;6262470;22;20348;-83
2023/05/23 04:26:42;;;;;;;9.07;5.55;;;;;;;;;;6283771;22;20019;-83
2023/05/23 04:29:30;;;;;;;10.70;5.85;;;;;;;;;;6261729;22;20012;-84
2023/05/23 04:32:18;;;;;;;8.68;6.00;;;;;;;;;;6283395;22;20012;-85
2023/05/23 04:35:04;;;;;;;8.60;5.50;;;;;;;;;;6286598;22;20012;-84
2023/05/23 04:37:55;;;;;;;8.38;5.28;;;;;;;;;;6285498;22;20015;-84
2023/05/23 04:40:42;;;;;;;12.30;6.47;;;;;;;;;;6285329;22;20019;-84
2023/05/23 04:43:53;;;;;;;11.35;5.60;;;;;;;;;;6285745;22;20440;-84
2023/05/23 04:47:01;;;;;;;8.90;5.53;;;;;;;;;;6273116;22;20016;-84
2023/05/23 04:50:04;;;;;;;8.27;5.05;;;;;;;;;;6285094;22;20011;-84
2023/05/23 04:52:50;;;;;;;8.80;5.78;;;;;;;;;;6285293;22;20019;-84
2023/05/23 04:55:35;;;;;;;11.02;5.28;;;;;;;;;;6285627;22;20015;-83
2023/05/23 04:58:21;;;;;;;14.90;5.68;;;;;;;;;;6284953;22;20328;-83
2023/05/23 05:01:08;;;;;;;7.75;5.60;;;;;;;;;;6285629;22;20333;-83
2023/05/23 05:03:53;;;;;;;6.82;5.20;;;;;;;;;;6285129;22;20024;-84
2023/05/23 05:06:40;;;;;;;9.43;5.00;;;;;;;;;;6263675;22;20441;-83
2023/05/23 05:09:27;;;;;;;8.27;5.10;;;;;;;;;;6264046;22;20011;-83
2023/05/23 05:12:12;;;;;;;10.77;5.10;;;;;;;;;;6263433;22;20019;-83
2023/05/23 05:14:59;;;;;;;10.27;4.93;;;;;;;;;;6263468;22;20016;-83
2023/05/23 05:17:45;;;;;;;9.45;4.95;;;;;;;;;;6284523;22;20209;-83
2023/05/23 05:20:32;;;;;;;9.00;4.70;;;;;;;;;;6285036;22;20329;-83
2023/05/23 05:23:18;;;;;;;7.10;4.30;;;;;;;;;;6285394;22;20024;-84
2023/05/23 05:26:05;;;;;;;7.15;4.20;;;;;;;;;;6279926;22;20011;-84
2023/05/23 05:28:52;;;;;;;8.60;4.63;;;;;;;;;;6286345;22;20015;-84
2023/05/23 05:31:37;;;;;;;6.47;4.40;;;;;;;;;;6284664;22;20011;-84
2023/05/23 05:34:23;;;;;;;6.85;4.53;;;;;;;;;;6284269;22;20019;-83
2023/05/23 05:37:08;;;;;;;6.03;4.07;;;;;;;;;;6261927;22;20331;-85
2023/05/23 05:39:55;;;;;;;9.23;4.63;;;;;;;;;;6262023;22;20016;-83
2023/05/23 05:42:41;;;;;;;8.15;4.53;;;;;;;;;;6283684;22;20008;-83
2023/05/23 05:45:27;;;;;;;10.98;4.70;;;;;;;;;;6263294;22;20380;-83
2023/05/23 05:48:13;;;;;;;8.10;4.50;;;;;;;;;;6284482;22;20015;-84
2023/05/23 05:51:00;;;;;;;7.15;4.47;;;;;;;;;;6284963;22;20016;-83
2023/05/23 05:53:45;;;;;;;6.45;4.20;;;;;;;;;;6284692;22;20015;-83
2023/05/23 05:56:31;;;;;;;6.32;4.50;;;;;;;;;;6284578;22;20015;-86
2023/05/23 05:59:17;;;;;;;8.70;4.38;;;;;;;;;;6259773;22;20023;-84
2023/05/23 06:02:03;;;;;;;7.32;4.32;;;;;;;;;;6280195;22;20019;-83
2023/05/23 06:04:48;;;;;;;8.38;4.50;;;;;;;;;;6281421;22;20020;-84
2023/05/23 06:07:34;;;;;;;6.10;4.47;;;;;;;;;;6283808;22;20220;-84
2023/05/23 06:10:20;;;;;;;12.82;4.72;;;;;;;;;;6283438;22;20433;-84
2023/05/23 06:13:06;;;;;;;8.45;4.70;;;;;;;;;;6258900;22;20011;-84
2023/05/23 06:15:53;;;;;;;7.32;4.75;;;;;;;;;;6259461;22;20015;-83
2023/05/23 06:18:38;;;;;;;6.10;4.28;;;;;;;;;;6259621;22;20011;-83
2023/05/23 06:21:23;;;;;;;6.75;4.38;;;;;;;;;;6259639;22;20019;-82
2023/05/23 06:24:13;;;;;;;6.45;4.10;;;;;;;;;;6280697;22;20019;-86
2023/05/23 06:27:00;;;;;;;9.52;4.35;;;;;;;;;;6262194;22;20421;-83
2023/05/23 06:29:46;;;;;;;8.38;4.75;;;;;;;;;;6258939;22;20008;-84
2023/05/23 06:32:31;;;;;;;6.78;4.53;;;;;;;;;;6258442;22;20400;-84
2023/05/23 06:35:16;;;;;;;11.88;4.32;;;;;;;;;;6258659;22;20020;-83
2023/05/23 06:38:02;;;;;;;6.53;4.25;;;;;;;;;;6284441;22;20020;-83
2023/05/23 06:40:47;;;;;;;5.57;3.80;;;;;;;;;;6280304;22;20019;-83
2023/05/23 06:43:33;;;;;;;5.78;4.28;;;;;;;;;;6280682;22;20015;-83
2023/05/23 06:46:31;;;;;;;7.25;4.32;;;;;;;;;;6261476;22;20012;-83
2023/05/23 06:49:17;;;;;;;7.68;4.13;;;;;;;;;;6281101;22;20016;-83
2023/05/23 06:52:04;;;;;;;5.35;4.07;;;;;;;;;;6282912;22;20015;-82
2023/05/23 06:54:50;;;;;;;6.32;4.40;;;;;;;;;;6258709;22;20437;-84
2023/05/23 06:57:38;;;;;;;13.80;6.07;;;;;;;;;;6281936;22;20019;-82
2023/05/23 07:00:24;;;;;;;6.03;4.18;;;;;;;;;;6261464;22;20015;-84
2023/05/23 07:03:27;;;;;;;8.82;3.92;;;;;;;;;;6282409;22;20016;-85
2023/05/23 07:06:17;;;;;;;6.03;4.22;;;;;;;;;;6261772;22;20015;-83
2023/05/23 07:09:03;;;;;;;7.65;3.97;;;;;;;;;;6279855;22;20019;-82
2023/05/23 07:11:49;;;;;;;7.38;3.03;;;;;;;;;;6261442;22;20020;-82
2023/05/23 07:14:37;;;;;;;6.22;3.67;;;;;;;;;;6281227;22;20019;-84
2023/05/23 07:17:23;;;;;;;7.25;3.75;;;;;;;;;;6280798;22;20016;-84
2023/05/23 07:20:09;;;;;;;5.68;3.42;;;;;;;;;;6279710;22;20037;-82
2023/05/23 07:22:57;;;;;;;6.00;4.00;;;;;;;;;;6261252;22;20012;-82
2023/05/23 07:25:43;;;;;;;7.18;3.47;;;;;;;;;;6280914;22;20024;-83
2023/05/23 07:28:36;;;;;;;5.82;3.50;;;;;;;;;;6280538;22;20011;-83
2023/05/23 07:31:22;;;;;;;8.45;3.58;;;;;;;;;;6280436;22;20027;-83
2023/05/23 07:34:11;;;;;;;7.88;3.95;;;;;;;;;;6281714;22;20012;-83
2023/05/23 07:37:05;;;;;;;5.97;3.60;;;;;;;;;;6262116;22;20016;-84
2023/05/23 07:39:58;;;;;;;7.82;4.22;;;;;;;;;;6280772;22;20012;-83
2023/05/23 07:42:44;;;;;;;5.82;3.83;;;;;;;;;;6280273;22;20016;-82
2023/05/23 07:45:29;;;;;;;6.95;4.13;;;;;;;;;;6258179;22;20012;-83
2023/05/23 07:48:15;;;;;;;7.93;4.18;;;;;;;;;;6282070;22;20019;-84
2023/05/23 07:51:00;;;;;;;6.50;3.60;;;;;;;;;;6282259;22;20019;-84
2023/05/23 07:53:46;;;;;;;6.93;3.80;;;;;;;;;;6280448;22;20015;-82
2023/05/23 07:56:32;;;;;;;4.93;3.83;;;;;;;;;;6281723;22;20488;-84
2023/05/23 07:59:17;;;;;;;5.72;3.78;;;;;;;;;;6281340;22;20328;-83
2023/05/23 08:02:05;;;;;;;6.85;3.42;;;;;;;;;;6258384;22;20016;-83
2023/05/23 08:04:52;;;;;;;5.70;3.42;;;;;;;;;;6282592;22;20425;-83
2023/05/23 08:07:38;;;;;;;6.10;3.60;;;;;;;;;;6258502;22;20016;-84
2023/05/23 08:10:27;;;;;;;11.88;4.45;;;;;;;;;;6258557;22;20023;-83
2023/05/23 08:13:15;;;;;;;4.88;3.72;;;;;;;;;;6282127;22;20015;-83
2023/05/23 08:16:17;;;;;;;6.00;3.83;;;;;;;;;;6282319;22;20425;-83
2023/05/23 08:19:03;;;;;;;6.68;4.03;;;;;;;;;;6281828;22;20020;-82
2023/05/23 08:21:49;;;;;;;5.63;3.65;;;;;;;;;;6279754;22;20332;-83
2023/05/23 08:24:35;;;;;;;5.35;3.40;;;;;;;;;;6278846;22;20340;-83
2023/05/23 08:27:22;;;;;;;6.20;3.72;;;;;;;;;;6258368;22;20016;-82
2023/05/23 08:30:13;;;;;;;8.45;4.00;;;;;;;;;;6280242;22;20440;-83
2023/05/23 08:32:59;;;;;;;7.43;3.63;;;;;;;;;;6258056;22;20011;-82
2023/05/23 08:35:45;;;;;;;8.65;3.58;;;;;;;;;;6282000;22;20020;-83
2023/05/23 08:38:32;;;;;;;9.18;5.85;;;;;;;;;;6259215;22;20012;-82
2023/05/23 08:41:29;;;;;;;6.97;4.05;;;;;;;;;;6280040;22;20016;-83
2023/05/23 08:44:20;;;;;;;11.70;4.55;;;;;;;;;;6279885;22;20485;-81
2023/05/23 08:47:16;;;;;;;6.53;4.35;;;;;;;;;;6260064;22;20016;-83
2023/05/23 08:50:10;;;;;;;5.22;3.08;;;;;;;;;;6281501;22;20015;-82
2023/05/23 08:52:58;;;;;;;4.53;2.83;;;;;;;;;;6258724;22;20012;-85
2023/05/23 08:55:50;;;;;;;6.15;2.90;;;;;;;;;;6279627;22;20019;-80
2023/05/23 08:58:40;;;;;;;8.07;3.97;;;;;;;;;;6260906;22;20012;-83
2023/05/23 09:01:28;;;;;;;5.20;3.55;;;;;;;;;;6258401;22;20028;-81
2023/05/23 09:04:16;;;;;;;11.88;3.83;;;;;;;;;;6260053;22;20015;-83
2023/05/23 09:07:18;;;;;;;5.05;3.10;;;;;;;;;;6261146;22;20027;-81
2023/05/23 09:10:06;;;;;;;4.80;3.20;;;;;;;;;;6279304;22;20023;-82
2023/05/23 09:12:51;;;;;;;6.55;3.40;;;;;;;;;;6280006;22;20007;-81
2023/05/23 09:15:37;;;;;;;4.20;3.28;;;;;;;;;;6281291;22;20019;-81
2023/05/23 09:18:25;;;;;;;7.95;4.20;;;;;;;;;;6279598;22;20023;-82
2023/05/23 09:21:12;;;;;;;5.97;3.97;;;;;;;;;;6259662;22;20019;-80
2023/05/23 09:24:05;;;;;;;10.25;4.32;;;;;;;;;;6281705;22;20016;-82
2023/05/23 09:26:50;;;;;;;5.70;3.33;;;;;;;;;;6283348;22;20015;-85
2023/05/23 09:29:39;;;;;;;4.47;3.30;;;;;;;;;;6283190;22;20015;-83
2023/05/23 09:32:26;;;;;;;6.93;3.88;;;;;;;;;;6284043;22;20015;-84
2023/05/23 09:35:12;;;;;;;7.75;3.28;;;;;;;;;;6260946;22;20023;-82
2023/05/23 09:37:58;;;;;;;4.65;3.33;;;;;;;;;;6261339;22;20019;-81
2023/05/23 09:40:44;;;;;;;6.25;3.70;;;;;;;;;;6260414;22;20019;-82
2023/05/23 09:43:29;;;;;;;7.95;4.15;;;;;;;;;;6283218;22;20324;-82
2023/05/23 09:46:15;;;;;;;6.35;3.50;;;;;;;;;;6281532;22;20424;-82
2023/05/23 09:49:00;;;;;;;5.32;2.97;;;;;;;;;;6282172;22;20325;-83
2023/05/23 09:51:57;;;;;;;5.15;3.20;;;;;;;;;;6280655;22;20015;-82
2023/05/23 09:54:43;;;;;;;5.10;3.40;;;;;;;;;;6262121;22;20015;-82
2023/05/23 09:57:30;;;;;;;7.80;3.55;;;;;;;;;;6282363;22;20015;-82
2023/05/23 10:00:17;;;;;;;8.93;3.92;;;;;;;;;;6281785;22;20333;-82
2023/05/23 10:03:13;;;;;;;5.78;3.80;;;;;;;;;;6281216;22;20394;-82
2023/05/23 10:06:05;;;;;;;8.10;3.80;;;;;;;;;;6282819;22;20016;-82
2023/05/23 10:09:01;;;;;;;5.82;4.20;;;;;;;;;;6281445;22;20041;-82
2023/05/23 10:11:52;;;;;;;4.40;3.25;;;;;;;;;;6260277;22;20012;-82
2023/05/23 10:14:42;;;;;;;6.63;3.80;;;;;;;;;;6281206;22;20023;-81
2023/05/23 10:18:01;;;;;;;5.95;3.50;;;;;;;;;;6259327;22;20016;-82
2023/05/23 10:20:51;;;;;;;9.43;3.65;;;;;;;;;;6284539;22;20393;-82
2023/05/23 10:23:38;;;;;;;6.68;3.20;;;;;;;;;;6281031;22;20016;-83
2023/05/23 10:26:23;;;;;;;5.07;3.38;;;;;;;;;;6274959;22;20020;-82
2023/05/23 10:29:09;;;;;;;8.68;3.60;;;;;;;;;;6259445;22;20011;-81
2023/05/23 10:31:55;;;;;;;9.20;3.50;;;;;;;;;;6261627;22;20019;-83
2023/05/23 10:34:46;;;;;;;7.57;3.60;;;;;;;;;;6281186;22;20016;-82
2023/05/23 10:37:31;;;;;;;5.63;3.30;;;;;;;;;;6282816;22;20015;-82
2023/05/23 10:40:30;;;;;;;6.22;2.60;;;;;;;;;;6260584;22;20019;-81
2023/05/23 10:43:43;;;;;;;6.20;3.13;;;;;;;;;;6281064;22;20019;-82
2023/05/23 10:47:02;;;;;;;4.70;3.38;;;;;;;;;;6283466;22;20012;-83
2023/05/23 10:49:53;;;;;;;7.32;3.35;;;;;;;;;;6283665;22;20015;-82
2023/05/23 10:52:40;;;;;;;5.45;3.30;;;;;;;;;;6283955;22;20015;-82
2023/05/23 10:55:26;;;;;;;5.55;3.05;;;;;;;;;;6280470;22;20023;-82
2023/05/23 10:58:20;;;;;;;10.20;3.63;;;;;;;;;;6283019;22;20011;-82
2023/05/23 11:01:08;;;;;;;15.30;4.30;;;;;;;;;;6281708;22;20012;-81
2023/05/23 11:03:54;;;;;;;6.78;3.97;;;;;;;;;;6258795;22;20237;-82
2023/05/23 11:06:42;;;;;;;4.88;2.75;;;;;;;;;;6283690;22;20440;-82
2023/05/23 11:09:27;;;;;;;5.93;2.78;;;;;;;;;;6282019;22;20011;-83
2023/05/23 11:12:13;;;;;;;6.07;2.78;;;;;;;;;;6282436;22;20443;-83
2023/05/23 11:14:59;;;;;;;6.45;3.10;;;;;;;;;;6281770;22;20012;-81
2023/05/23 11:17:55;;;;;;;4.38;2.72;;;;;;;;;;6282121;22;20016;-83
2023/05/23 11:20:44;;;;;;;4.90;2.70;;;;;;;;;;6282836;22;20016;-83
2023/05/23 11:23:42;;;;;;;4.72;2.58;;;;;;;;;;6283666;22;20020;-83
2023/05/23 11:26:29;;;;;;;5.72;2.78;;;;;;;;;;6276089;22;20015;-85
2023/05/23 11:29:15;;;;;;;10.07;2.88;;;;;;;;;;6281547;22;20401;-84
2023/05/23 11:32:11;;;;;;;6.47;2.50;;;;;;;;;;6281526;22;20016;-82
2023/05/23 11:35:15;;;;;;;2.75;1.98;;;;;;;;;;6280494;22;20027;-82
2023/05/23 11:38:02;;;;;;;5.35;2.53;;;;;;;;;;6282428;22;20015;-82
2023/05/23 11:40:48;;;;;;;6.00;2.80;;;;;;;;;;6284357;22;20007;-82
2023/05/23 11:43:33;;;;;;;4.05;2.40;;;;;;;;;;6281590;22;20329;-82
2023/05/23 11:46:19;;;;;;;5.60;3.30;;;;;;;;;;6282095;22;20016;-82
2023/05/23 11:49:09;;;;;;;4.18;2.10;;;;;;;;;;6258493;22;20016;-82
2023/05/23 11:51:58;;;;;;;2.65;2.10;;;;;;;;;;6282225;22;20336;-82
2023/05/23 11:54:44;;;;;;;3.47;2.30;;;;;;;;;;6283717;22;20019;-82
2023/05/23 11:57:30;;;;;;;3.47;2.15;;;;;;;;;;6283657;22;20011;-82
2023/05/23 12:00:15;;;;;;;4.07;2.22;;;;;;;;;;6282178;22;20015;-81
2023/05/23 12:03:05;;;;;;;3.78;2.28;;;;;;;;;;6260482;22;20325;-81
2023/05/23 12:05:51;;;;;;;4.47;2.55;;;;;;;;;;6260815;22;20424;-82
2023/05/23 12:08:36;;;;;;;3.45;2.47;;;;;;;;;;6284105;22;20015;-83
2023/05/23 12:11:24;;;;;;;5.47;2.75;;;;;;;;;;6280364;22;20020;-82
2023/05/23 12:14:13;;;;;;;3.90;2.22;;;;;;;;;;6259282;22;20016;-83
2023/05/23 12:16:58;;;;;;;6.63;2.45;;;;;;;;;;6283173;22;20016;-83
2023/05/23 12:19:45;;;;;;;7.78;3.00;;;;;;;;;;6283369;22;20428;-83
2023/05/23 12:22:31;;;;;;;6.07;2.53;;;;;;;;;;6282107;22;20012;-81
2023/05/23 12:25:16;;;;;;;4.28;2.65;;;;;;;;;;6260489;22;20015;-82
2023/05/23 12:28:02;;;;;;;4.43;2.67;;;;;;;;;;6282348;22;20019;-83
2023/05/23 12:30:48;;;;;;;7.38;3.20;;;;;;;;;;6260551;22;20016;-83
2023/05/23 12:33:38;;;;;;;10.27;2.90;;;;;;;;;;6260239;22;20020;-81
2023/05/23 12:36:25;;;;;;;5.65;2.60;;;;;;;;;;6284217;22;20294;-82
2023/05/23 12:39:12;;;;;;;5.32;2.55;;;;;;;;;;6261123;22;20016;-82
2023/05/23 12:42:08;;;;;;;6.85;2.60;;;;;;;;;;6283068;22;20015;-82
2023/05/23 12:44:53;;;;;;;6.38;2.75;;;;;;;;;;6261090;22;20012;-82
2023/05/23 12:47:39;;;;;;;7.53;2.70;;;;;;;;;;6285702;22;20340;-81
2023/05/23 12:50:24;;;;;;;9.82;3.67;;;;;;;;;;6282633;22;20016;-82
2023/05/23 12:53:10;;;;;;;3.70;2.30;;;;;;;;;;6280250;22;20424;-81
2023/05/23 12:55:55;;;;;;;3.30;2.70;;;;;;;;;;6285758;22;20016;-81
2023/05/23 12:58:42;;;;;;;5.10;4.05;;;;;;;;;;6284720;22;20011;-80
2023/05/23 13:01:28;;;;;;;8.32;4.28;;;;;;;;;;6284031;22;20015;-81
2023/05/23 13:04:13;;;;;;;6.45;3.42;;;;;;;;;;6283906;22;20439;-80
2023/05/23 13:06:59;;;;;;;4.03;2.30;;;;;;;;;;6285134;22;20016;-81
2023/05/23 13:09:44;;;;;;;3.25;2.28;;;;;;;;;;6262819;22;20016;-81
2023/05/23 13:12:29;;;;;;;8.82;2.63;;;;;;;;;;6285591;22;20015;-81
2023/05/23 13:15:15;;;;;;;5.32;2.58;;;;;;;;;;6282947;22;20020;-79
2023/05/23 13:18:01;;;;;;;6.95;2.50;;;;;;;;;;6282824;22;20019;-83
2023/05/23 13:20:47;;;;;;;6.68;2.92;;;;;;;;;;6283332;22;20007;-81
2023/05/23 13:23:32;;;;;;;5.78;2.55;;;;;;;;;;6289058;22;20016;-82
2023/05/23 13:26:18;;;;;;;4.63;2.80;;;;;;;;;;6279934;22;20016;-82
2023/05/23 13:29:05;;;;;;;4.60;2.70;;;;;;;;;;6288358;22;20007;-83
2023/05/23 13:31:51;;;;;;;4.22;2.35;;;;;;;;;;6286781;22;20019;-82
2023/05/23 13:34:37;;;;;;;4.15;2.70;;;;;;;;;;6288320;22;20016;-82
2023/05/23 13:37:22;;;;;;;8.48;2.53;;;;;;;;;;6287318;22;20008;-82
2023/05/23 13:40:11;;;;;;;3.72;2.53;;;;;;;;;;6266842;22;20019;-82
2023/05/23 13:42:56;;;;;;;3.55;2.30;;;;;;;;;;6283135;22;20024;-82
2023/05/23 13:45:42;;;;;;;4.35;2.35;;;;;;;;;;6281872;22;20012;-83
2023/05/23 13:48:28;;;;;;;4.53;2.55;;;;;;;;;;6281812;22;20020;-83
2023/05/23 13:51:13;;;;;;;2.60;2.22;;;;;;;;;;6282095;22;20015;-81
2023/05/23 13:53:59;;;;;;;6.82;2.40;;;;;;;;;;6260340;22;20500;-82
2023/05/23 13:56:45;;;;;;;4.15;2.08;;;;;;;;;;6283277;22;20020;-82
2023/05/23 13:59:30;;;;;;;3.38;2.20;;;;;;;;;;6260955;22;20016;-83
2023/05/23 14:02:16;;;;;;;3.65;2.35;;;;;;;;;;6261941;22;20019;-83
2023/05/23 14:05:01;;;;;;;7.93;2.53;;;;;;;;;;6263522;22;20011;-79
2023/05/23 14:07:47;;;;;;;4.30;2.30;;;;;;;;;;6285848;22;20008;-82
2023/05/23 14:10:32;;;;;;;4.65;2.00;;;;;;;;;;6284863;22;20015;-81
2023/05/23 14:13:18;;;;;;;3.80;2.53;;;;;;;;;;6283434;22;20020;-82
2023/05/23 14:16:03;;;;;;;8.00;2.80;;;;;;;;;;6283251;22;20024;-80
2023/05/23 14:18:49;;;;;;;5.90;2.75;;;;;;;;;;6285048;22;20012;-81
2023/05/23 14:21:35;;;;;;;3.17;2.20;;;;;;;;;;6285007;22;20011;-80
2023/05/23 14:24:21;;;;;;;4.47;2.28;;;;;;;;;;6282980;22;20015;-81
2023/05/23 14:27:06;;;;;;;5.22;2.10;;;;;;;;;;6274536;22;20024;-80
2023/05/23 14:29:51;;;;;;;4.07;2.20;;;;;;;;;;6284775;22;20016;-81
2023/05/23 14:32:38;;;;;;;3.85;2.40;;;;;;;;;;6284225;22;20016;-82
2023/05/23 14:35:25;;;;;;;4.00;2.70;;;;;;;;;;6281852;22;20436;-81
2023/05/23 14:38:10;;;;;;;4.32;2.70;;;;;;;;;;6280183;22;20015;-81
2023/05/23 14:40:57;;;;;;;7.07;2.92;;;;;;;;;;6281637;22;20755;-81
2023/05/23 14:43:42;;;;;;;5.55;2.63;;;;;;;;;;6281433;22;20015;-81
2023/05/23 14:46:27;;;;;;;6.40;2.55;;;;;;;;;;6281974;22;20019;-80
2023/05/23 14:49:12;;;;;;;4.05;2.80;;;;;;;;;;6281722;22;20020;-81
2023/05/23 14:51:58;;;;;;;6.07;3.25;;;;;;;;;;6282394;22;20020;-80
2023/05/23 14:54:44;;;;;;;5.85;2.20;;;;;;;;;;6284369;22;20019;-80
2023/05/23 14:57:29;;;;;;;7.13;2.65;;;;;;;;;;6281155;22;20012;-80
2023/05/23 15:00:16;;;;;;;3.53;2.70;;;;;;;;;;6283958;22;20016;-80
2023/05/23 15:03:02;;;;;;;8.07;2.75;;;;;;;;;;6281936;22;20432;-82
2023/05/23 15:05:47;;;;;;;7.30;2.75;;;;;;;;;;6278197;22;20012;-80
2023/05/23 15:08:34;;;;;;;4.97;2.60;;;;;;;;;;6282397;22;20015;-81
2023/05/23 15:11:20;;;;;;;6.43;2.60;;;;;;;;;;6283527;22;20019;-81
2023/05/23 15:14:05;;;;;;;6.15;3.00;;;;;;;;;;6281416;22;20472;-81
2023/05/23 15:16:50;;;;;;;5.55;2.50;;;;;;;;;;6281978;22;20024;-81
2023/05/23 15:19:36;;;;;;;4.70;2.95;;;;;;;;;;6283319;22;20023;-82
2023/05/23 15:22:21;;;;;;;5.80;2.92;;;;;;;;;;6283795;22;20397;-80
2023/05/23 15:25:10;;;;;;;4.57;2.60;;;;;;;;;;6281887;22;20016;-83
2023/05/23 15:27:56;;;;;;;4.65;2.15;;;;;;;;;;6282892;22;20023;-82
2023/05/23 15:30:42;;;;;;;4.47;2.40;;;;;;;;;;6283773;22;20329;-81
2023/05/23 15:33:28;;;;;;;9.65;2.92;;;;;;;;;;6283636;22;20332;-80
2023/05/23 15:36:14;;;;;;;3.67;2.55;;;;;;;;;;6281099;22;20464;-81
2023/05/23 15:38:59;;;;;;;4.55;2.65;;;;;;;;;;6282513;22;20012;-81
2023/05/23 15:41:45;;;;;;;10.20;2.85;;;;;;;;;;6283810;22;20424;-81
2023/05/23 15:44:30;;;;;;;9.30;2.85;;;;;;;;;;6281902;22;20016;-82
2023/05/23 15:47:17;;;;;;;8.07;2.60;;;;;;;;;;6282901;22;20023;-81
2023/05/23 15:50:04;;;;;;;6.03;2.55;;;;;;;;;;6283131;22;20361;-81
2023/05/23 15:52:49;;;;;;;3.53;2.47;;;;;;;;;;6280256;22;20011;-82
2023/05/23 15:55:35;;;;;;;10.15;2.55;;;;;;;;;;6260264;22;20020;-80
2023/05/23 15:58:20;;;;;;;4.65;2.70;;;;;;;;;;6283208;22;20425;-80
2023/05/23 16:01:06;;;;;;;6.07;2.92;;;;;;;;;;6281129;22;20019;-81
2023/05/23 16:03:51;;;;;;;5.30;2.50;;;;;;;;;;6282045;22;20019;-82
2023/05/23 16:06:37;;;;;;;3.85;2.63;;;;;;;;;;6282992;22;20011;-82
2023/05/23 16:09:22;;;;;;;6.72;2.78;;;;;;;;;;6281386;22;20016;-82
2023/05/23 16:12:07;;;;;;;3.90;2.63;;;;;;;;;;6283081;22;20015;-82
2023/05/23 16:14:52;;;;;;;7.65;2.75;;;;;;;;;;6282698;22;20015;-80
2023/05/23 16:17:38;;;;;;;4.28;2.70;;;;;;;;;;6281850;22;20016;-81
2023/05/23 16:20:23;;;;;;;8.20;3.00;;;;;;;;;;6283302;22;20020;-81
2023/05/23 16:23:08;;;;;;;5.35;2.80;;;;;;;;;;6283003;22;20016;-81
2023/05/23 16:25:54;;;;;;;3.78;2.60;;;;;;;;;;6276502;22;20317;-82
2023/05/23 16:28:42;;;;;;;5.05;2.67;;;;;;;;;;6282632;22;20008;-83
2023/05/23 16:31:28;;;;;;;4.78;2.63;;;;;;;;;;6284178;22;20012;-82
2023/05/23 16:34:14;;;;;;;4.85;2.55;;;;;;;;;;6284048;22;20016;-82
2023/05/23 16:37:01;;;;;;;3.25;2.30;;;;;;;;;;6285006;22;20023;-82
2023/05/23 16:39:47;;;;;;;5.85;2.50;;;;;;;;;;6284190;22;20019;-82
2023/05/23 16:42:32;;;;;;;6.85;3.03;;;;;;;;;;6285458;22;20016;-80